Time;durP1;ratioP1;P1;durP2;ratioP2;P2;SDS_P1;SDS_P2;PMS_P1;PMS_P2;Temp;Humidity;BMP_temperature;BMP_pressure;BME280_temperature;BME280_humidity;BME280_pressure;Samples;Min_cycle;Max_cycle;Signal;HPM_P1;HPM_P2
2022/03/05 00:04:06;;;;;;;8.30;2.25;;;3.20;99.90;;;;;;20628492;28;20038;-46
2022/03/05 00:14:07;;;;;;;8.38;2.85;;;3.10;99.90;;;;;;20553506;28;20055;-46
2022/03/05 00:24:08;;;;;;;11.68;2.67;;;2.90;99.90;;;;;;20516878;28;20499;-46
2022/03/05 00:34:09;;;;;;;8.02;2.33;;;3.00;99.90;;;;;;20518162;28;20065;-45
2022/03/05 00:44:10;;;;;;;13.20;2.47;;;2.90;99.90;;;;;;20577082;28;20046;-46
2022/03/05 00:54:13;;;;;;;10.48;2.97;;;2.80;99.90;;;;;;20573952;28;20372;-46
2022/03/05 01:04:14;;;;;;;10.00;3.00;;;2.60;99.90;;;;;;20529806;28;20038;-46
2022/03/05 01:14:15;;;;;;;10.68;2.50;;;2.50;99.90;;;;;;20583412;28;20414;-46
2022/03/05 01:24:17;;;;;;;15.15;2.40;;;2.40;99.90;;;;;;20575428;28;20034;-46
2022/03/05 01:34:18;;;;;;;7.25;2.25;;;2.30;99.90;;;;;;20580277;28;20462;-46
2022/03/05 01:44:20;;;;;;;9.60;2.70;;;2.30;99.90;;;;;;20583821;28;20059;-46
2022/03/05 01:54:23;;;;;;;6.65;2.00;;;2.30;99.90;;;;;;20577693;28;20059;-46
2022/03/05 02:04:24;;;;;;;9.77;1.83;;;2.10;99.90;;;;;;20580910;28;20057;-46
2022/03/05 02:14:25;;;;;;;12.25;2.35;;;2.00;99.90;;;;;;20560391;28;20058;-46
2022/03/05 02:24:33;;;;;;;9.73;2.47;;;1.90;99.90;;;;;;20558508;28;20046;-46
2022/03/05 02:34:34;;;;;;;9.82;1.98;;;1.80;99.90;;;;;;20557481;28;20042;-46
2022/03/05 02:44:35;;;;;;;6.28;2.28;;;1.70;99.90;;;;;;20570619;28;20070;-46
2022/03/05 02:54:36;;;;;;;8.77;2.17;;;1.70;99.90;;;;;;20562992;28;20054;-46
2022/03/05 03:04:37;;;;;;;4.97;2.35;;;1.60;99.90;;;;;;20552393;28;20054;-46
2022/03/05 03:14:38;;;;;;;9.48;2.25;;;1.40;99.90;;;;;;20554073;28;20419;-46
2022/03/05 03:24:39;;;;;;;9.40;2.70;;;1.20;99.90;;;;;;20557264;28;20053;-46
2022/03/05 03:34:40;;;;;;;9.00;2.53;;;1.10;99.90;;;;;;20519862;28;20054;-45
2022/03/05 03:44:42;;;;;;;7.32;2.55;;;1.00;99.90;;;;;;20525049;28;20668;-45
2022/03/05 03:54:45;;;;;;;11.13;2.75;;;0.90;99.90;;;;;;20521001;28;20043;-46
2022/03/05 04:04:47;;;;;;;8.13;2.50;;;1.10;99.90;;;;;;20571503;28;20047;-46
2022/03/05 04:14:49;;;;;;;7.05;3.00;;;1.00;99.90;;;;;;20592996;28;20092;-46
2022/03/05 04:24:50;;;;;;;9.00;2.70;;;0.90;99.90;;;;;;20584802;28;20043;-46
2022/03/05 04:34:52;;;;;;;8.52;2.30;;;0.70;99.90;;;;;;20514733;28;20050;-46
2022/03/05 04:44:53;;;;;;;11.00;2.67;;;0.70;99.90;;;;;;20561101;28;20047;-46
2022/03/05 04:54:54;;;;;;;9.18;2.40;;;0.60;99.90;;;;;;20594402;28;20059;-45
2022/03/05 05:04:55;;;;;;;7.30;2.92;;;0.50;99.90;;;;;;20630666;28;20038;-46
2022/03/05 05:14:56;;;;;;;10.00;2.47;;;0.50;99.90;;;;;;20587044;28;20054;-45
2022/03/05 05:24:58;;;;;;;17.27;4.05;;;0.40;99.90;;;;;;20595560;28;20053;-45
2022/03/05 05:34:59;;;;;;;10.25;3.05;;;0.40;99.90;;;;;;20618379;28;20042;-45
2022/03/05 05:45:00;;;;;;;9.93;2.72;;;0.30;99.90;;;;;;20591821;28;20061;-45
2022/03/05 05:55:02;;;;;;;11.30;2.90;;;0.30;99.90;;;;;;20587768;28;20054;-45
2022/03/05 06:05:03;;;;;;;10.73;3.13;;;0.30;99.90;;;;;;20582179;28;20050;-45
2022/03/05 06:15:08;;;;;;;10.10;2.85;;;0.20;99.90;;;;;;20602022;28;20557;-45
2022/03/05 06:25:09;;;;;;;13.13;3.75;;;0.10;99.90;;;;;;20590883;28;20044;-45
2022/03/05 06:35:11;;;;;;;12.82;2.78;;;0.10;99.90;;;;;;20605807;28;20050;-46
2022/03/05 06:45:12;;;;;;;7.15;2.95;;;0.10;99.90;;;;;;20611804;28;20053;-45
2022/03/05 06:55:15;;;;;;;8.55;3.25;;;0.10;99.90;;;;;;20637807;28;20049;-45
2022/03/05 07:05:16;;;;;;;8.25;2.97;;;0.20;99.90;;;;;;20650754;28;20417;-45
2022/03/05 07:15:17;;;;;;;12.50;3.90;;;0.20;99.90;;;;;;20596926;28;20412;-45
2022/03/05 07:25:18;;;;;;;16.88;3.47;;;0.30;99.90;;;;;;20604342;28;20046;-45
2022/03/05 07:35:19;;;;;;;8.90;2.72;;;0.40;99.90;;;;;;20599909;28;20058;-45
2022/03/05 07:45:21;;;;;;;13.30;3.75;;;0.50;99.90;;;;;;20590328;28;20695;-45
2022/03/05 07:55:22;;;;;;;14.27;3.40;;;0.60;99.90;;;;;;20603213;28;20043;-46
2022/03/05 08:05:24;;;;;;;12.95;3.45;;;0.80;99.90;;;;;;20639682;28;20506;-46
2022/03/05 08:15:25;;;;;;;11.32;3.30;;;1.00;99.90;;;;;;20604071;28;20046;-46
2022/03/05 08:25:27;;;;;;;16.48;4.28;;;1.30;99.90;;;;;;20594472;28;20038;-46
2022/03/05 08:35:29;;;;;;;10.88;3.15;;;1.60;99.90;;;;;;20591063;28;20059;-46
2022/03/05 08:45:30;;;;;;;17.17;3.75;;;1.80;99.90;;;;;;20593450;28;20038;-46
2022/03/05 08:55:31;;;;;;;10.05;3.53;;;2.20;99.90;;;;;;20579817;28;20050;-46
2022/03/05 09:05:32;;;;;;;16.77;3.72;;;2.40;99.90;;;;;;20586042;28;20298;-46
2022/03/05 09:15:33;;;;;;;12.48;4.25;;;2.80;99.90;;;;;;20593980;28;20050;-46
2022/03/05 09:25:36;;;;;;;13.55;4.13;;;3.10;99.90;;;;;;20571719;28;20140;-46
2022/03/05 09:35:38;;;;;;;11.43;4.82;;;3.40;99.90;;;;;;20561662;28;20046;-46
2022/03/05 09:45:43;;;;;;;18.15;5.03;;;3.70;99.90;;;;;;20557869;28;20047;-46
2022/03/05 09:55:44;;;;;;;12.55;4.35;;;3.80;99.90;;;;;;20573833;28;20438;-46
2022/03/05 10:05:45;;;;;;;19.98;5.22;;;4.00;99.90;;;;;;20555427;28;20407;-46
2022/03/05 10:15:49;;;;;;;13.18;5.38;;;4.20;99.90;;;;;;20568089;28;20046;-46
2022/03/05 10:25:54;;;;;;;11.15;5.10;;;4.50;99.90;;;;;;20507918;28;20031;-46
2022/03/05 10:35:57;;;;;;;17.88;4.63;;;4.70;99.90;;;;;;20481207;28;20103;-46
2022/03/05 10:45:58;;;;;;;14.48;4.88;;;5.00;99.90;;;;;;20552255;28;20046;-46
2022/03/05 10:56:19;;;;;;;16.40;5.35;;;5.30;99.90;;;;;;20567761;28;20046;-46
2022/03/05 11:06:21;;;;;;;19.10;6.63;;;5.70;99.90;;;;;;20573812;28;20521;-46
2022/03/05 11:16:23;;;;;;;18.17;7.03;;;6.30;99.90;;;;;;20579426;28;20046;-46
2022/03/05 11:26:27;;;;;;;16.55;5.30;;;6.70;99.90;;;;;;20592792;28;20077;-46
2022/03/05 11:36:35;;;;;;;20.05;5.85;;;7.10;99.90;;;;;;20558926;28;20063;-46
2022/03/05 11:46:36;;;;;;;33.38;6.72;;;7.70;99.90;;;;;;20512938;28;20050;-46
2022/03/05 11:56:37;;;;;;;16.27;6.45;;;8.80;99.90;;;;;;20507010;28;20051;-46
2022/03/05 12:06:43;;;;;;;20.60;6.80;;;9.10;99.90;;;;;;20514645;28;20051;-47
2022/03/05 12:16:45;;;;;;;15.02;5.68;;;9.20;99.90;;;;;;20515261;28;20051;-46
2022/03/05 12:26:56;;;;;;;21.38;6.38;;;9.50;99.90;;;;;;20509603;28;20422;-46
2022/03/05 12:36:57;;;;;;;15.65;6.35;;;10.10;99.90;;;;;;20509369;28;20441;-46
2022/03/05 12:46:58;;;;;;;14.77;5.32;;;9.90;99.90;;;;;;20633309;28;20192;-46
2022/03/05 12:56:59;;;;;;;21.35;5.80;;;10.50;99.90;;;;;;20612942;28;20380;-46
2022/03/05 13:07:00;;;;;;;17.20;5.03;;;10.70;99.90;;;;;;20523058;28;20054;-46
2022/03/05 13:17:03;;;;;;;19.83;6.18;;;11.30;99.90;;;;;;20518868;28;20066;-46
2022/03/05 13:27:05;;;;;;;21.10;5.80;;;11.40;99.90;;;;;;20512097;28;20070;-46
2022/03/05 13:37:12;;;;;;;25.80;5.55;;;11.40;99.90;;;;;;20577142;28;20421;-46
2022/03/05 13:47:15;;;;;;;20.08;6.53;;;11.50;99.90;;;;;;20591272;28;20569;-47
2022/03/05 13:57:31;;;;;;;10.93;4.75;;;11.30;99.90;;;;;;20590090;28;20521;-47
2022/03/05 14:07:41;;;;;;;17.60;6.45;;;11.70;99.90;;;;;;20627375;28;21387;-47
2022/03/05 14:17:48;;;;;;;15.82;5.90;;;11.80;98.70;;;;;;20630159;28;20050;-47
2022/03/05 14:27:52;;;;;;;16.37;6.50;;;12.00;97.80;;;;;;20608583;28;20069;-47
2022/03/05 14:37:55;;;;;;;14.43;4.78;;;12.50;97.40;;;;;;20581274;28;20173;-47
2022/03/05 14:47:56;;;;;;;14.38;4.95;;;12.40;97.50;;;;;;20587758;28;20046;-47
2022/03/05 14:57:57;;;;;;;12.38;4.97;;;11.60;97.50;;;;;;20585118;28;20054;-46
2022/03/05 15:07:58;;;;;;;14.65;5.03;;;10.80;99.80;;;;;;20561604;28;20518;-46
2022/03/05 15:18:00;;;;;;;16.98;5.65;;;10.10;99.90;;;;;;20506988;28;20054;-46
2022/03/05 15:28:01;;;;;;;17.02;6.00;;;9.60;99.90;;;;;;20594822;28;20045;-46
2022/03/05 15:38:02;;;;;;;15.23;4.78;;;9.40;99.90;;;;;;20592752;28;20046;-46
2022/03/05 15:48:04;;;;;;;14.60;5.47;;;9.30;99.90;;;;;;20591436;28;20186;-46
2022/03/05 15:58:05;;;;;;;18.95;5.55;;;9.00;99.90;;;;;;20577091;28;20233;-46
2022/03/05 16:08:06;;;;;;;18.85;6.43;;;8.80;99.90;;;;;;20580997;28;20395;-46
2022/03/05 16:18:07;;;;;;;18.65;6.35;;;8.50;99.90;;;;;;20506436;28;20051;-46
2022/03/05 16:28:09;;;;;;;12.23;5.35;;;8.10;99.90;;;;;;20494718;28;20036;-46
2022/03/05 16:38:10;;;;;;;16.08;6.18;;;7.80;99.90;;;;;;20600265;28;20053;-46
2022/03/05 16:48:11;;;;;;;15.82;4.72;;;7.60;99.90;;;;;;20574374;28;20422;-46
2022/03/05 16:58:12;;;;;;;14.00;5.07;;;7.40;99.90;;;;;;20562901;28;20403;-46
2022/03/05 17:08:14;;;;;;;22.98;6.90;;;7.10;99.90;;;;;;20572749;28;20487;-46
2022/03/05 17:18:15;;;;;;;12.82;5.10;;;6.90;99.90;;;;;;20565512;28;20047;-46
2022/03/05 17:28:17;;;;;;;16.05;4.57;;;6.60;99.90;;;;;;20589541;28;20585;-46
2022/03/05 17:38:19;;;;;;;21.13;7.07;;;6.40;99.90;;;;;;20579216;28;20442;-46
2022/03/05 17:48:22;;;;;;;15.15;5.22;;;6.10;99.90;;;;;;20582841;28;20136;-46
2022/03/05 17:58:24;;;;;;;14.90;4.15;;;6.00;99.90;;;;;;20583119;28;20059;-46
2022/03/05 18:08:25;;;;;;;14.32;4.90;;;5.70;99.90;;;;;;20588038;28;20372;-46
2022/03/05 18:18:27;;;;;;;14.77;5.05;;;5.60;99.90;;;;;;20575094;28;20062;-46
2022/03/05 18:28:31;;;;;;;12.77;4.40;;;5.60;99.90;;;;;;20581996;28;20038;-46
2022/03/05 18:38:34;;;;;;;18.00;5.60;;;5.50;99.90;;;;;;20579452;28;20054;-46
2022/03/05 18:48:35;;;;;;;16.48;5.50;;;5.40;99.90;;;;;;20589525;28;20062;-46
2022/03/05 18:58:36;;;;;;;11.60;5.07;;;5.30;99.90;;;;;;20574125;28;20990;-46
2022/03/05 19:08:37;;;;;;;11.60;5.90;;;5.20;99.90;;;;;;20514041;28;20450;-46
2022/03/05 19:18:39;;;;;;;16.35;5.28;;;5.10;99.90;;;;;;20516769;28;20053;-46
2022/03/05 19:28:40;;;;;;;14.50;5.68;;;5.00;99.90;;;;;;20524641;28;20042;-46
2022/03/05 19:38:41;;;;;;;15.43;5.30;;;4.90;99.90;;;;;;20524700;28;20057;-46
2022/03/05 19:48:42;;;;;;;19.52;6.07;;;4.70;99.90;;;;;;20531019;28;20533;-46
2022/03/05 19:58:43;;;;;;;17.02;5.28;;;4.80;99.90;;;;;;20519712;28;20058;-46
2022/03/05 20:08:44;;;;;;;13.88;4.82;;;4.60;99.90;;;;;;20506417;28;20043;-46
2022/03/05 20:18:45;;;;;;;13.70;5.13;;;4.50;99.90;;;;;;20517277;28;20501;-46
2022/03/05 20:28:46;;;;;;;17.08;6.35;;;4.50;99.90;;;;;;20513284;28;20043;-46
2022/03/05 20:38:47;;;;;;;19.60;5.68;;;4.50;99.90;;;;;;20515579;28;20050;-46
2022/03/05 20:48:48;;;;;;;11.82;5.05;;;4.60;99.90;;;;;;20514019;28;20258;-46
2022/03/05 20:58:51;;;;;;;16.13;6.63;;;4.50;99.90;;;;;;20514284;28;20415;-46
2022/03/05 21:08:54;;;;;;;18.30;6.35;;;4.40;99.90;;;;;;20517350;28;20039;-46
2022/03/05 21:18:55;;;;;;;16.30;5.53;;;4.30;99.90;;;;;;20511463;28;20522;-46
2022/03/05 21:28:57;;;;;;;16.13;4.63;;;4.20;99.90;;;;;;20511679;28;20046;-46
2022/03/05 21:38:58;;;;;;;11.63;4.22;;;4.10;99.90;;;;;;20510765;28;20528;-46
2022/03/05 21:48:59;;;;;;;16.80;5.80;;;4.00;99.90;;;;;;20578519;28;20062;-46
2022/03/05 21:59:00;;;;;;;13.77;5.10;;;3.90;99.90;;;;;;20590424;28;20057;-46
2022/03/05 22:09:03;;;;;;;13.60;4.53;;;3.80;99.90;;;;;;20585128;28;20050;-46
2022/03/05 22:19:04;;;;;;;14.05;4.95;;;3.70;99.90;;;;;;20582113;28;20050;-46
2022/03/05 22:29:05;;;;;;;13.05;4.68;;;3.60;99.90;;;;;;20577018;28;20042;-46
2022/03/05 22:39:07;;;;;;;7.35;3.40;;;3.50;99.90;;;;;;20571216;28;20057;-46
2022/03/05 22:49:08;;;;;;;10.18;3.47;;;3.40;99.90;;;;;;20602488;28;20395;-46
2022/03/05 22:59:09;;;;;;;17.83;4.05;;;3.30;99.90;;;;;;20582932;28;20058;-46
2022/03/05 23:09:28;;;;;;;8.75;2.83;;;3.30;99.90;;;;;;20555981;28;20049;-46
2022/03/05 23:19:29;;;;;;;9.80;3.38;;;3.20;99.90;;;;;;20551907;28;20232;-46
2022/03/05 23:29:31;;;;;;;10.30;3.60;;;3.10;99.90;;;;;;20487158;28;20055;-46
2022/03/05 23:39:32;;;;;;;12.02;3.47;;;3.10;99.90;;;;;;20481911;28;20051;-46
2022/03/05 23:49:33;;;;;;;11.82;3.72;;;3.00;99.90;;;;;;20481589;28;20049;-46
2022/03/05 23:59:34;;;;;;;11.18;3.28;;;2.80;99.90;;;;;;20487318;28;20043;-46
